Time;durP1;ratioP1;P1;durP2;ratioP2;P2;SDS_P1;SDS_P2;PMS_P1;PMS_P2;Temp;Humidity;BMP_temperature;BMP_pressure;BME280_temperature;BME280_humidity;BME280_pressure;Samples;Min_cycle;Max_cycle;Signal;HPM_P1;HPM_P2
2024/02/15 00:01:05;;;;;;;40.08;16.38;;;;;;;10.28;100.00;98419.53;5013999;28;20044;-64
2024/02/15 00:03:31;;;;;;;51.17;16.77;;;;;;;10.25;100.00;98416.06;5026342;28;20079;-62
2024/02/15 00:05:59;;;;;;;59.08;17.90;;;;;;;10.12;100.00;98413.41;5026334;28;20041;-65
2024/02/15 00:08:26;;;;;;;88.38;20.75;;;;;;;10.18;100.00;98415.16;5027149;28;20041;-63
2024/02/15 00:10:53;;;;;;;56.75;19.27;;;;;;;10.19;100.00;98410.81;5029277;28;20041;-61
2024/02/15 00:13:19;;;;;;;89.07;19.65;;;;;;;10.16;100.00;98406.47;5029971;28;20099;-61
2024/02/15 00:15:49;;;;;;;40.38;16.63;;;;;;;10.16;100.00;98409.06;5028849;28;20136;-63
2024/02/15 00:18:14;;;;;;;57.70;20.50;;;;;;;10.32;100.00;98411.75;5027912;28;20037;-64
2024/02/15 00:20:40;;;;;;;38.30;17.63;;;;;;;10.43;100.00;98407.47;5027408;28;20456;-63
2024/02/15 00:23:06;;;;;;;43.50;16.33;;;;;;;10.39;100.00;98409.19;5028796;28;20037;-62
2024/02/15 00:25:32;;;;;;;104.10;20.83;;;;;;;10.44;100.00;98406.66;5010629;28;20061;-63
2024/02/15 00:28:00;;;;;;;54.58;18.17;;;;;;;10.45;100.00;98408.38;5029702;28;20132;-62
2024/02/15 00:30:27;;;;;;;85.07;19.67;;;;;;;10.12;100.00;98394.31;5028388;28;20027;-61
2024/02/15 00:32:52;;;;;;;64.53;18.17;;;;;;;10.45;100.00;98397.09;5031351;28;20429;-61
2024/02/15 00:35:18;;;;;;;57.22;17.48;;;;;;;10.27;100.00;98402.22;5028694;28;20548;-64
2024/02/15 00:37:44;;;;;;;38.90;16.52;;;;;;;10.25;100.00;98395.28;5031386;28;20474;-63
2024/02/15 00:40:10;;;;;;;55.72;17.60;;;;;;;10.43;100.00;98399.66;5028949;28;20036;-61
2024/02/15 00:42:36;;;;;;;33.75;15.80;;;;;;;10.30;100.00;98393.56;5029011;28;20009;-61
2024/02/15 00:45:01;;;;;;;63.33;18.80;;;;;;;10.47;100.00;98392.78;5026214;28;20032;-60
2024/02/15 00:47:28;;;;;;;94.57;20.88;;;;;;;10.45;100.00;98390.19;5025876;28;20042;-64
2024/02/15 00:49:54;;;;;;;57.75;17.33;;;;;;;10.41;100.00;98391.00;5028868;28;20025;-64
2024/02/15 00:52:19;;;;;;;77.75;18.60;;;;;;;10.27;100.00;98397.00;5026927;28;20406;-61
2024/02/15 00:54:45;;;;;;;36.28;15.73;;;;;;;10.31;100.00;98397.03;5029085;28;20051;-64
2024/02/15 00:57:11;;;;;;;38.35;16.67;;;;;;;10.24;100.00;98398.75;5029800;28;20041;-63
2024/02/15 00:59:36;;;;;;;72.80;19.23;;;;;;;10.23;100.00;98395.25;5028062;28;20424;-62
2024/02/15 01:02:02;;;;;;;51.35;15.93;;;;;;;10.41;100.00;98391.88;5024665;28;20548;-62
2024/02/15 01:04:28;;;;;;;78.95;19.17;;;;;;;10.46;100.00;98394.50;5026667;28;20108;-59
2024/02/15 01:06:54;;;;;;;94.03;20.75;;;;;;;10.52;100.00;98394.53;5024457;28;20033;-59
2024/02/15 01:09:19;;;;;;;78.30;20.13;;;;;;;10.33;100.00;98388.38;5021193;28;20036;-60
2024/02/15 01:11:45;;;;;;;54.97;18.17;;;;;;;10.32;100.00;98396.16;5024598;28;20065;-62
2024/02/15 01:14:10;;;;;;;74.35;18.80;;;;;;;10.49;100.00;98394.53;5023057;28;20052;-61
2024/02/15 01:16:36;;;;;;;70.95;19.35;;;;;;;10.51;100.00;98395.38;5023885;28;20037;-61
2024/02/15 01:19:02;;;;;;;58.65;17.55;;;;;;;10.59;100.00;98392.84;5026459;28;20127;-61
2024/02/15 01:21:27;;;;;;;107.18;21.20;;;;;;;10.54;100.00;98398.00;5004386;28;20444;-61
2024/02/15 01:23:53;;;;;;;73.65;18.98;;;;;;;10.37;100.00;98394.44;5025888;28;20052;-61
2024/02/15 01:26:20;;;;;;;58.58;18.05;;;;;;;10.31;100.00;98391.84;5023419;28;20092;-62
2024/02/15 01:28:45;;;;;;;90.90;19.52;;;;;;;10.20;100.00;98386.59;5025833;28;20048;-60
2024/02/15 01:31:11;;;;;;;60.53;19.92;;;;;;;10.44;100.00;98390.13;5026731;28;20041;-60
2024/02/15 01:33:37;;;;;;;116.00;22.50;;;;;;;10.48;100.00;98389.31;5020954;28;20117;-61
2024/02/15 01:36:04;;;;;;;69.53;17.80;;;;;;;10.52;100.00;98389.34;5022011;28;20032;-62
2024/02/15 01:38:29;;;;;;;93.43;21.10;;;;;;;10.62;100.00;98391.97;5023060;28;20447;-60
2024/02/15 01:40:54;;;;;;;75.05;18.92;;;;;;;10.50;100.00;98390.22;5026095;28;20549;-62
2024/02/15 01:43:20;;;;;;;59.20;18.23;;;;;;;10.47;100.00;98393.63;5028544;28;20365;-63
2024/02/15 01:45:46;;;;;;;60.88;18.23;;;;;;;10.48;100.00;98390.19;5028734;28;20045;-61
2024/02/15 01:48:14;;;;;;;76.15;19.55;;;;;;;10.37;100.00;98389.25;5027022;28;20024;-62
2024/02/15 01:50:39;;;;;;;46.08;17.70;;;;;;;10.41;100.00;98386.69;5026338;28;20045;-62
2024/02/15 01:53:08;;;;;;;63.38;18.58;;;;;;;10.37;100.00;98386.66;5028888;28;20269;-61
2024/02/15 01:55:33;;;;;;;122.25;23.00;;;;;;;10.42;100.00;98392.72;5024554;28;20045;-60
2024/02/15 01:58:00;;;;;;;78.43;20.08;;;;;;;10.32;100.00;98386.63;5026043;28;20036;-60
2024/02/15 02:00:26;;;;;;;96.70;22.90;;;;;;;10.38;100.00;98388.38;5028195;28;20488;-60
2024/02/15 02:02:53;;;;;;;98.63;22.20;;;;;;;10.38;100.00;98385.78;5028109;28;20048;-61
2024/02/15 02:05:19;;;;;;;51.92;14.60;;;;;;;10.39;100.00;98388.38;5029583;28;20026;-63
2024/02/15 02:07:45;;;;;;;56.83;18.02;;;;;;;10.47;100.00;98385.84;5029099;28;20032;-62
2024/02/15 02:10:12;;;;;;;60.10;19.20;;;;;;;10.50;100.00;98382.41;5008588;28;20102;-62
2024/02/15 02:12:38;;;;;;;93.35;21.50;;;;;;;10.47;100.00;98375.44;5026241;28;20087;-61
2024/02/15 02:15:06;;;;;;;73.30;20.65;;;;;;;10.55;100.00;98373.72;5027967;28;20045;-62
2024/02/15 02:17:31;;;;;;;92.38;22.05;;;;;;;10.59;100.00;98369.44;5025972;28;20055;-63
2024/02/15 02:19:57;;;;;;;73.03;20.13;;;;;;;10.48;100.00;98373.72;5028253;28;20024;-62
2024/02/15 02:22:23;;;;;;;72.72;19.33;;;;;;;10.51;100.00;98371.97;5026261;28;20044;-61
2024/02/15 02:25:00;;;;;;;57.92;15.88;;;;;;;10.27;100.00;98364.94;5029017;28;20060;-61
2024/02/15 02:27:31;;;;;;;93.95;21.77;;;;;;;10.37;100.00;98371.03;5026159;28;20041;-61
2024/02/15 02:29:57;;;;;;;66.60;19.35;;;;;;;10.57;100.00;98371.13;5030070;28;20040;-61
2024/02/15 02:32:22;;;;;;;66.05;20.33;;;;;;;10.32;100.00;98376.22;5025011;28;20100;-61
2024/02/15 02:34:48;;;;;;;83.35;18.80;;;;;;;10.42;100.00;98380.59;5026790;28;20013;-62
2024/02/15 02:37:13;;;;;;;60.10;19.70;;;;;;;10.31;100.00;98378.84;5027210;28;20048;-63
2024/02/15 02:39:39;;;;;;;89.05;21.23;;;;;;;10.38;100.00;98376.25;5027623;28;20327;-63
2024/02/15 02:42:04;;;;;;;85.63;23.10;;;;;;;10.31;100.00;98390.09;5027077;28;20063;-62
2024/02/15 02:44:30;;;;;;;87.15;23.77;;;;;;;10.26;100.00;98379.69;5026919;28;20038;-62
2024/02/15 02:46:55;;;;;;;64.78;20.00;;;;;;;10.31;100.00;98379.69;5028797;28;20041;-61
2024/02/15 02:49:21;;;;;;;105.45;23.60;;;;;;;10.36;100.00;98377.13;5026449;28;20025;-61
2024/02/15 02:51:47;;;;;;;69.68;20.20;;;;;;;10.45;100.00;98373.69;5008728;28;20041;-62
2024/02/15 02:54:14;;;;;;;51.00;19.70;;;;;;;10.28;100.00;98372.75;5029049;28;20568;-61
2024/02/15 02:56:40;;;;;;;107.85;23.90;;;;;;;10.25;100.00;98385.72;5027159;28;20656;-60
2024/02/15 02:59:07;;;;;;;59.88;21.02;;;;;;;10.32;100.00;98390.97;5027341;28;20606;-62
2024/02/15 03:01:32;;;;;;;98.68;26.15;;;;;;;10.46;100.00;98388.47;5025912;28;20041;-62
2024/02/15 03:03:57;;;;;;;72.30;21.67;;;;;;;10.55;100.00;98381.53;5025578;28;20071;-60
2024/02/15 03:06:24;;;;;;;48.25;18.85;;;;;;;10.46;100.00;98384.09;5027191;28;20053;-61
2024/02/15 03:08:53;;;;;;;84.90;23.17;;;;;;;10.48;100.00;98382.41;5028725;28;20033;-64
2024/02/15 03:11:19;;;;;;;55.45;19.67;;;;;;;10.42;100.00;98387.53;5028988;28;20121;-61
2024/02/15 03:13:44;;;;;;;73.28;20.90;;;;;;;10.30;100.00;98385.75;5008222;28;20157;-61
2024/02/15 03:16:10;;;;;;;79.25;22.48;;;;;;;10.47;100.00;98390.19;5026270;28;20128;-62
2024/02/15 03:18:35;;;;;;;103.05;24.17;;;;;;;10.59;100.00;98384.16;5026685;28;20095;-64
2024/02/15 03:21:01;;;;;;;68.10;21.63;;;;;;;10.62;100.00;98391.97;5029358;28;20042;-62
2024/02/15 03:23:26;;;;;;;81.25;22.08;;;;;;;10.66;100.00;98388.50;5026617;28;20117;-63
2024/02/15 03:25:53;;;;;;;63.72;20.67;;;;;;;10.55;100.00;98383.28;5025912;28;20102;-63
2024/02/15 03:28:21;;;;;;;48.72;18.83;;;;;;;10.50;100.00;98377.19;5028615;28;20057;-62
2024/02/15 03:30:46;;;;;;;72.10;20.08;;;;;;;10.55;100.00;98386.72;5024923;28;20409;-63
2024/02/15 03:33:13;;;;;;;51.85;18.88;;;;;;;10.55;100.00;98386.72;5026964;28;20021;-64
2024/02/15 03:35:38;;;;;;;89.82;23.90;;;;;;;10.53;100.00;98380.66;5025403;28;20448;-63
2024/02/15 03:38:05;;;;;;;69.45;20.73;;;;;;;10.63;100.00;98386.78;5027775;28;20029;-61
2024/02/15 03:40:32;;;;;;;66.65;21.92;;;;;;;10.61;100.00;98379.84;5027028;28;20041;-60
2024/02/15 03:42:57;;;;;;;78.20;21.15;;;;;;;10.54;100.00;98384.13;5025411;28;20033;-64
2024/02/15 03:45:24;;;;;;;63.70;20.15;;;;;;;10.51;100.00;98381.53;5023882;28;20025;-61
2024/02/15 03:47:50;;;;;;;74.18;20.48;;;;;;;10.45;100.00;98387.56;5026975;28;20036;-61
2024/02/15 03:50:16;;;;;;;82.53;22.35;;;;;;;10.59;100.00;98387.63;5022851;28;20025;-61
2024/02/15 03:52:41;;;;;;;96.07;23.10;;;;;;;10.70;100.00;98379.84;5024729;28;20097;-62
2024/02/15 03:55:07;;;;;;;56.88;18.77;;;;;;;10.55;100.00;98380.69;5025637;28;20091;-64
2024/02/15 03:57:33;;;;;;;108.60;23.88;;;;;;;10.58;100.00;98383.28;5027847;28;20508;-62
2024/02/15 03:59:59;;;;;;;69.10;20.45;;;;;;;10.58;100.00;98377.22;5025708;28;20072;-62
2024/02/15 04:02:26;;;;;;;68.43;20.15;;;;;;;10.41;100.00;98384.06;5025782;28;20416;-62
2024/02/15 04:04:55;;;;;;;96.55;21.83;;;;;;;10.49;100.00;98370.25;5025973;28;20059;-61
2024/02/15 04:07:21;;;;;;;63.38;20.48;;;;;;;10.49;100.00;98378.03;5026155;28;20329;-62
2024/02/15 04:09:47;;;;;;;95.07;22.58;;;;;;;10.35;100.00;98371.03;5024179;28;20025;-63
2024/02/15 04:12:13;;;;;;;60.17;18.38;;;;;;;10.48;100.00;98369.38;5026579;28;20471;-63
2024/02/15 04:14:46;;;;;;;98.72;23.27;;;;;;;10.07;100.00;98372.66;5026810;28;20045;-64
2024/02/15 04:17:21;;;;;;;71.65;20.95;;;;;;;10.11;100.00;98374.41;5027105;28;20042;-59
2024/02/15 04:19:47;;;;;;;96.35;23.60;;;;;;;10.10;100.00;98378.72;5023606;28;20051;-61
2024/02/15 04:22:13;;;;;;;55.58;19.13;;;;;;;10.23;100.00;98384.84;5023163;28;20032;-60
2024/02/15 04:24:39;;;;;;;99.47;23.67;;;;;;;10.11;100.00;98387.41;5023246;28;20091;-62
2024/02/15 04:27:08;;;;;;;72.38;22.33;;;;;;;9.98;100.00;98376.94;5026368;28;20076;-63
2024/02/15 04:29:34;;;;;;;101.72;23.25;;;;;;;9.80;100.00;98377.69;5023065;28;20033;-64
2024/02/15 04:31:59;;;;;;;68.18;21.20;;;;;;;9.71;100.00;98378.53;5027856;28;20456;-63
2024/02/15 04:34:24;;;;;;;60.95;21.45;;;;;;;9.54;100.00;98375.78;5007201;28;20485;-62
2024/02/15 04:36:50;;;;;;;92.80;22.90;;;;;;;9.64;100.00;98382.81;5025089;28;20049;-61
2024/02/15 04:39:26;;;;;;;55.13;20.30;;;;;;;9.27;100.00;98376.47;5024470;28;20033;-62
2024/02/15 04:41:53;;;;;;;61.75;18.38;;;;;;;9.31;100.00;98375.66;5023093;28;20610;-61
2024/02/15 04:44:22;;;;;;;72.55;19.92;;;;;;;9.18;100.00;98380.75;5011229;28;20037;-62
2024/02/15 04:46:49;;;;;;;97.38;20.55;;;;;;;9.09;100.00;98378.91;5022179;28;20430;-61
2024/02/15 04:49:15;;;;;;;78.13;18.95;;;;;;;9.05;100.00;98378.91;5026122;28;20026;-61
2024/02/15 04:51:41;;;;;;;99.70;20.45;;;;;;;9.03;100.00;98380.59;5024918;28;20060;-62
2024/02/15 04:54:12;;;;;;;54.13;16.25;;;;;;;8.94;100.00;98373.56;5025346;28;20037;-61
2024/02/15 04:56:38;;;;;;;76.22;19.85;;;;;;;8.81;100.00;98375.19;5024133;28;20412;-63
2024/02/15 04:59:04;;;;;;;62.35;17.73;;;;;;;8.76;100.00;98377.72;5027281;28;20417;-61
2024/02/15 05:01:33;;;;;;;60.35;18.50;;;;;;;8.68;100.00;98377.66;5009505;28;20420;-60
2024/02/15 05:03:58;;;;;;;76.40;20.77;;;;;;;8.66;100.00;98378.50;5024526;28;20065;-63
2024/02/15 05:06:24;;;;;;;66.13;19.77;;;;;;;8.64;100.00;98378.47;5024527;28;20504;-61
2024/02/15 05:08:49;;;;;;;131.88;25.48;;;;;;;8.75;100.00;98383.78;5026471;28;20139;-60
2024/02/15 05:11:19;;;;;;;69.82;21.70;;;;;;;8.85;100.00;98380.44;5024601;28;20045;-61
2024/02/15 05:13:45;;;;;;;110.03;25.08;;;;;;;8.91;100.00;98386.53;5026635;28;20025;-61
2024/02/15 05:16:10;;;;;;;79.88;20.50;;;;;;;9.02;100.00;98384.91;5022069;28;20084;-61
2024/02/15 05:18:37;;;;;;;85.35;24.70;;;;;;;9.12;100.00;98385.84;5025313;28;20017;-62
2024/02/15 05:21:03;;;;;;;64.82;22.30;;;;;;;9.18;100.00;98383.34;5026054;28;20037;-65
2024/02/15 05:23:29;;;;;;;86.90;23.25;;;;;;;9.24;100.00;98387.69;5025564;28;20025;-60
2024/02/15 05:25:56;;;;;;;78.80;23.70;;;;;;;9.32;100.00;98382.56;5022625;28;20227;-59
2024/02/15 05:28:26;;;;;;;54.58;20.88;;;;;;;9.45;100.00;98383.53;5025963;28;20108;-61
2024/02/15 05:31:08;;;;;;;109.15;25.77;;;;;;;9.54;100.00;98387.94;5022218;28;20116;-64
2024/02/15 05:33:34;;;;;;;59.88;20.83;;;;;;;9.33;100.00;98384.31;5024094;28;20163;-59
2024/02/15 05:35:59;;;;;;;84.03;24.05;;;;;;;9.05;100.00;98391.88;5026218;28;20342;-65
2024/02/15 05:38:24;;;;;;;45.58;20.92;;;;;;;9.18;100.00;98392.84;5023405;28;20032;-63
2024/02/15 05:40:50;;;;;;;112.80;26.70;;;;;;;9.26;100.00;98388.56;5023442;28;20128;-62
2024/02/15 05:43:16;;;;;;;69.40;23.50;;;;;;;9.27;100.00;98387.72;5026349;28;20499;-62
2024/02/15 05:45:42;;;;;;;101.50;26.48;;;;;;;9.22;100.00;98392.88;5022782;28;20042;-62
2024/02/15 05:48:08;;;;;;;71.45;23.30;;;;;;;9.23;100.00;98378.16;5023159;28;20076;-62
2024/02/15 05:50:33;;;;;;;61.58;21.50;;;;;;;9.20;100.00;98386.78;5023678;28;20499;-63
2024/02/15 05:53:01;;;;;;;64.05;22.38;;;;;;;8.73;100.00;98386.34;5026116;28;20611;-62
2024/02/15 05:55:27;;;;;;;90.18;24.88;;;;;;;8.73;100.00;98388.09;5023111;28;20123;-62
2024/02/15 05:57:53;;;;;;;113.85;27.80;;;;;;;8.91;100.00;98383.94;5026156;28;20533;-62
2024/02/15 06:00:18;;;;;;;73.15;24.67;;;;;;;8.93;100.00;98388.28;5023493;28;20025;-62
2024/02/15 06:02:44;;;;;;;130.60;28.30;;;;;;;9.13;100.00;98395.38;5023900;28;20329;-61
2024/02/15 06:05:10;;;;;;;62.72;23.95;;;;;;;9.31;100.00;98380.84;5026706;28;20286;-62
2024/02/15 06:07:35;;;;;;;73.15;24.48;;;;;;;9.23;100.00;98391.13;5024952;28;20037;-61
2024/02/15 06:10:03;;;;;;;105.15;28.63;;;;;;;9.41;100.00;98390.44;5022428;28;20057;-60
2024/02/15 06:12:31;;;;;;;73.55;26.92;;;;;;;9.44;100.00;98393.06;5026043;28;20038;-61
2024/02/15 06:14:57;;;;;;;88.30;25.73;;;;;;;9.51;100.00;98394.81;5021777;28;20442;-62
2024/02/15 06:17:22;;;;;;;79.40;26.85;;;;;;;9.45;100.00;98392.19;5008046;28;20416;-59
2024/02/15 06:19:47;;;;;;;106.60;27.33;;;;;;;9.47;100.00;98394.81;5023759;28;20044;-60
2024/02/15 06:22:14;;;;;;;78.38;24.17;;;;;;;9.46;100.00;98393.91;5024272;28;20025;-61
2024/02/15 06:24:41;;;;;;;69.03;23.90;;;;;;;9.56;100.00;98394.88;5023803;28;20029;-61
2024/02/15 06:27:06;;;;;;;64.32;24.48;;;;;;;9.47;100.00;98398.25;5025651;28;20037;-60
2024/02/15 06:40:28;;;;;;;80.55;24.98;;;;;;;9.33;100.00;98410.25;5029627;28;20572;-59
2024/02/15 06:42:54;;;;;;;118.28;28.95;;;;;;;9.24;100.00;98403.25;5029037;28;20464;-63
2024/02/15 06:45:19;;;;;;;70.35;25.95;;;;;;;9.35;100.00;98403.34;5029253;28;20434;-63
2024/02/15 06:47:45;;;;;;;106.63;29.65;;;;;;;9.31;100.00;98406.81;5027707;28;20033;-61
2024/02/15 06:50:12;;;;;;;83.28;28.05;;;;;;;9.31;100.00;98409.41;5028275;28;20349;-62
2024/02/15 06:52:38;;;;;;;68.68;26.98;;;;;;;9.23;100.00;98407.59;5028552;28;20183;-60
2024/02/15 06:55:06;;;;;;;99.13;30.17;;;;;;;9.29;100.00;98406.78;5027253;28;20398;-62
2024/02/15 06:57:35;;;;;;;97.53;29.98;;;;;;;9.33;100.00;98410.25;5025258;28;20031;-60
2024/02/15 07:00:15;;;;;;;74.35;28.75;;;;;;;9.49;100.00;98419.03;5026312;28;20099;-60
2024/02/15 07:02:41;;;;;;;99.63;28.38;;;;;;;9.47;100.00;98410.38;5025139;28;20968;-61
2024/02/15 07:05:06;;;;;;;78.30;25.80;;;;;;;9.50;100.00;98415.56;5027267;28;20132;-62
2024/02/15 07:07:32;;;;;;;65.85;25.05;;;;;;;9.59;100.00;98414.78;5027340;28;20092;-60
2024/02/15 07:09:58;;;;;;;140.02;31.13;;;;;;;9.66;100.00;98414.00;5027193;28;20029;-60
2024/02/15 07:12:23;;;;;;;70.80;26.08;;;;;;;9.72;100.00;98411.41;5027068;28;20410;-60
2024/02/15 07:14:48;;;;;;;104.43;26.58;;;;;;;9.81;100.00;98402.84;5025853;28;20112;-63
2024/02/15 07:17:14;;;;;;;91.63;26.40;;;;;;;9.71;100.00;98403.63;5025903;28;20041;-60
2024/02/15 07:19:44;;;;;;;70.20;26.00;;;;;;;9.82;100.00;98406.28;5028491;28;20087;-60
2024/02/15 07:22:09;;;;;;;77.40;25.88;;;;;;;9.94;100.00;98403.75;5025223;28;20033;-61
2024/02/15 07:24:38;;;;;;;93.43;23.40;;;;;;;9.80;100.00;98411.47;5027127;28;20027;-61
2024/02/15 07:27:04;;;;;;;77.13;26.65;;;;;;;9.87;100.00;98399.38;5023860;28;20068;-61
2024/02/15 07:29:31;;;;;;;109.60;27.10;;;;;;;9.99;100.00;98401.19;5025587;28;20044;-59
2024/02/15 07:31:57;;;;;;;114.03;25.58;;;;;;;9.90;100.00;98399.41;5024145;28;20045;-60
2024/02/15 07:34:22;;;;;;;69.75;25.27;;;;;;;10.21;100.00;98406.50;5027270;28;20033;-60
2024/02/15 07:36:48;;;;;;;121.07;27.17;;;;;;;10.21;100.00;98407.38;5024343;28;20443;-60
2024/02/15 07:39:22;;;;;;;65.82;22.77;;;;;;;9.96;100.00;98409.84;5025550;28;20515;-61
2024/02/15 07:41:48;;;;;;;93.78;26.30;;;;;;;10.06;100.00;98408.16;5024466;28;20084;-59
2024/02/15 07:44:14;;;;;;;69.18;24.23;;;;;;;10.31;100.00;98407.44;5025893;28;20104;-61
2024/02/15 07:46:40;;;;;;;62.65;20.65;;;;;;;10.15;100.00;98407.34;5027055;28;20300;-61
2024/02/15 07:49:06;;;;;;;77.45;26.90;;;;;;;10.50;100.00;98403.22;5025071;28;20056;-60
2024/02/15 07:51:31;;;;;;;91.68;28.70;;;;;;;10.54;100.00;98405.81;5008087;28;20041;-59
2024/02/15 07:53:57;;;;;;;106.20;27.02;;;;;;;10.55;100.00;98407.53;5023911;28;20228;-61
2024/02/15 07:56:22;;;;;;;78.63;26.67;;;;;;;10.41;100.00;98398.78;5010178;28;20040;-57
2024/02/15 07:58:51;;;;;;;113.05;26.08;;;;;;;10.48;100.00;98405.81;5023055;28;20033;-59
2024/02/15 08:01:17;;;;;;;61.60;23.02;;;;;;;10.54;100.00;98407.53;5025768;28;20029;-61
2024/02/15 08:03:45;;;;;;;82.40;25.90;;;;;;;10.75;100.00;98401.53;5026106;28;20025;-61
2024/02/15 08:06:15;;;;;;;61.45;26.17;;;;;;;10.60;100.00;98401.47;5025402;28;20045;-62
2024/02/15 08:08:46;;;;;;;63.90;22.38;;;;;;;10.76;100.00;98403.28;5026892;28;20095;-60
2024/02/15 08:11:16;;;;;;;71.28;24.90;;;;;;;10.85;100.00;98401.56;5026630;28;20112;-60
2024/02/15 08:13:49;;;;;;;76.65;23.52;;;;;;;10.96;100.00;98393.78;5025723;28;20025;-62
2024/02/15 08:16:23;;;;;;;80.35;24.55;;;;;;;11.09;100.00;98395.53;5024060;28;20040;-61
2024/02/15 08:18:54;;;;;;;96.90;25.77;;;;;;;11.20;100.00;98388.59;5025703;28;20070;-61
2024/02/15 08:21:25;;;;;;;92.22;25.83;;;;;;;10.99;100.00;98389.44;5023552;28;20104;-61
2024/02/15 08:23:50;;;;;;;102.75;26.85;;;;;;;11.30;100.00;98386.88;5025473;28;20072;-61
2024/02/15 08:26:16;;;;;;;65.20;23.88;;;;;;;11.12;100.00;98387.72;5026117;28;20072;-62
2024/02/15 08:28:42;;;;;;;70.60;23.02;;;;;;;11.46;100.00;98384.25;5024838;28;20095;-60
2024/02/15 08:31:09;;;;;;;58.50;21.92;;;;;;;11.17;100.00;98379.94;5025612;28;20040;-60
2024/02/15 08:33:35;;;;;;;68.22;22.77;;;;;;;11.18;100.00;98373.84;5026309;28;20032;-61
2024/02/15 08:36:02;;;;;;;121.35;22.30;;;;;;;11.50;100.00;98369.50;5024251;28;20128;-60
2024/02/15 08:38:27;;;;;;;59.20;19.98;;;;;;;11.29;100.00;98377.28;5026435;28;20021;-61
2024/02/15 08:40:53;;;;;;;106.60;20.40;;;;;;;11.30;100.00;98371.25;5023691;28;20033;-58
2024/02/15 08:43:18;;;;;;;67.05;18.42;;;;;;;11.46;100.00;98371.22;5024848;28;20164;-60
2024/02/15 08:45:44;;;;;;;53.60;19.92;;;;;;;11.58;100.00;98372.97;5024414;28;20037;-58
2024/02/15 08:48:10;;;;;;;66.90;20.65;;;;;;;11.21;100.00;98366.00;5026041;28;20048;-58
2024/02/15 08:50:35;;;;;;;75.97;23.00;;;;;;;11.57;100.00;98366.00;5023994;28;20497;-57
2024/02/15 08:53:06;;;;;;;106.97;24.05;;;;;;;11.53;100.00;98370.34;5024854;28;20040;-60
2024/02/15 08:55:31;;;;;;;68.47;20.80;;;;;;;11.81;100.00;98359.88;5026144;28;20691;-60
2024/02/15 08:57:56;;;;;;;106.63;22.88;;;;;;;11.92;100.00;98366.81;5024034;28;20597;-59
2024/02/15 09:00:22;;;;;;;73.15;20.58;;;;;;;11.53;100.00;98359.94;5025978;28;20075;-59
2024/02/15 09:02:48;;;;;;;81.25;22.20;;;;;;;11.66;100.00;98362.53;5024713;28;20059;-59
2024/02/15 09:05:14;;;;;;;47.35;20.40;;;;;;;11.76;100.00;98359.03;5027910;28;20029;-59
2024/02/15 09:07:44;;;;;;;44.50;18.83;;;;;;;11.54;100.00;98363.41;5029101;28;20232;-59
2024/02/15 09:10:10;;;;;;;69.28;20.92;;;;;;;11.66;100.00;98362.53;5027712;28;20586;-61
2024/02/15 09:12:40;;;;;;;49.75;19.52;;;;;;;11.89;100.00;98366.81;5028469;28;20555;-60
2024/02/15 09:15:12;;;;;;;87.88;20.13;;;;;;;11.79;100.00;98356.41;5027807;28;20022;-60
2024/02/15 09:17:41;;;;;;;47.22;17.08;;;;;;;11.79;100.00;98361.63;5026699;28;20092;-61
2024/02/15 09:20:20;;;;;;;86.45;20.52;;;;;;;11.83;100.00;98354.66;5027864;28;20033;-59
2024/02/15 09:22:49;;;;;;;56.28;16.65;;;;;;;11.99;100.00;98352.88;5025494;28;20039;-59
2024/02/15 09:25:15;;;;;;;42.97;15.15;;;;;;;12.14;100.00;98351.13;5024682;28;20041;-61
2024/02/15 09:27:41;;;;;;;59.67;17.05;;;;;;;12.25;100.00;98344.09;5024776;28;20035;-61
2024/02/15 09:30:09;;;;;;;75.53;17.52;;;;;;;12.37;100.00;98346.66;5022139;28;20031;-61
2024/02/15 09:32:35;;;;;;;55.75;17.52;;;;;;;12.44;100.00;98351.88;5023663;28;20049;-58
2024/02/15 09:35:01;;;;;;;100.22;19.15;;;;;;;12.66;100.00;98343.91;5022926;28;20170;-60
2024/02/15 09:37:28;;;;;;;58.47;15.27;;;;;;;12.78;100.00;98340.34;5025721;28;20459;-59
2024/02/15 09:39:54;;;;;;;59.55;16.23;;;;;;;12.85;100.00;98342.91;5027111;28;20063;-59
2024/02/15 09:42:20;;;;;;;71.95;17.27;;;;;;;13.04;100.00;98345.41;5024224;28;20618;-59
2024/02/15 09:44:46;;;;;;;50.30;15.52;;;;;;;12.90;100.00;98350.72;5024376;28;20564;-60
2024/02/15 09:47:12;;;;;;;44.92;14.77;;;;;;;13.15;100.00;98348.78;5027406;28;20479;-58
2024/02/15 09:49:39;;;;;;;97.38;18.73;;;;;;;13.10;100.00;98353.19;5023618;28;20565;-61
2024/02/15 09:52:15;;;;;;;69.30;22.02;;;;;;;12.97;100.00;98343.72;5016756;28;20667;-61
2024/02/15 09:54:44;;;;;;;68.57;18.05;;;;;;;13.26;100.00;98347.84;5026186;28;20061;-59
2024/02/15 09:57:11;;;;;;;51.75;14.25;;;;;;;13.11;100.00;98347.06;5027733;28;20094;-62
2024/02/15 09:59:37;;;;;;;75.80;18.60;;;;;;;13.25;100.00;98352.19;5027372;28;20052;-61
2024/02/15 10:02:03;;;;;;;124.80;42.30;;;;;;;12.19;100.00;98349.38;5009257;28;20041;-61
2024/02/15 10:04:29;;;;;;;65.85;34.83;;;;;;;11.51;100.00;98355.59;5030442;28;20025;-60
2024/02/15 10:06:54;;;;;;;96.55;31.83;;;;;;;11.51;100.00;98358.19;5030748;28;20045;-62
2024/02/15 10:09:30;;;;;;;94.30;38.90;;;;;;;11.49;100.00;98362.53;5029996;28;20025;-62
2024/02/15 10:11:57;;;;;;;98.55;36.88;;;;;;;11.41;100.00;98358.22;5028361;28;20088;-59
2024/02/15 10:14:26;;;;;;;75.38;24.50;;;;;;;11.66;100.00;98352.94;5029795;28;20029;-62
2024/02/15 10:16:56;;;;;;;82.88;27.20;;;;;;;11.72;100.00;98346.88;5029272;28;20040;-60
2024/02/15 10:19:25;;;;;;;73.82;30.98;;;;;;;11.81;100.00;98348.59;5028770;28;20032;-59
2024/02/15 10:21:57;;;;;;;76.97;27.08;;;;;;;11.95;100.00;98340.75;5028833;28;20621;-60
2024/02/15 10:24:27;;;;;;;58.97;25.83;;;;;;;12.04;100.00;98343.31;5032766;28;20021;-60
2024/02/15 10:27:01;;;;;;;90.40;25.90;;;;;;;12.36;100.00;98334.50;5028045;28;20606;-59
2024/02/15 10:29:26;;;;;;;98.43;26.30;;;;;;;12.58;100.00;98331.78;5031626;28;20079;-60
2024/02/15 10:32:01;;;;;;;67.22;17.35;;;;;;;13.37;100.00;98332.91;5030671;28;20037;-60
2024/02/15 10:34:28;;;;;;;52.83;13.85;;;;;;;13.97;100.00;98324.50;5029929;28;20048;-60
2024/02/15 10:36:56;;;;;;;58.83;13.52;;;;;;;14.50;100.00;98326.44;5029059;28;20500;-60
2024/02/15 10:39:23;;;;;;;85.13;15.63;;;;;;;15.06;100.00;98313.44;5028440;28;20477;-59
2024/02/15 10:41:53;;;;;;;57.45;15.88;;;;;;;15.02;100.00;98316.13;5027492;28;20040;-59
2024/02/15 10:44:23;;;;;;;52.95;19.42;;;;;;;15.42;100.00;98304.97;5029961;28;20452;-59
2024/02/15 10:46:52;;;;;;;57.72;21.27;;;;;;;15.66;100.00;98305.38;5029062;28;20100;-60
2024/02/15 10:49:22;;;;;;;50.53;14.05;;;;;;;15.40;100.00;98293.63;5028824;28;20025;-60
2024/02/15 10:51:58;;;;;;;72.45;13.32;;;;;;;15.75;100.00;98297.34;5026367;28;20060;-62
2024/02/15 10:54:42;;;;;;;42.22;10.65;;;;;;;15.96;100.00;98289.97;5029042;28;20021;-60
2024/02/15 10:57:11;;;;;;;65.57;10.80;;;;;;;15.64;100.00;98280.97;5026957;28;20037;-61
2024/02/15 10:59:38;;;;;;;61.63;9.88;;;;;;;16.44;100.00;98272.34;5029297;28;20126;-61
2024/02/15 11:02:23;;;;;;;73.63;10.30;;;;;;;16.59;100.00;98265.88;5027359;28;20628;-60
2024/02/15 11:04:56;;;;;;;43.25;18.60;;;;;;;15.93;100.00;98266.41;5028784;28;20065;-61
2024/02/15 11:07:24;;;;;;;67.20;9.77;;;;;;;17.03;100.00;98252.56;5027965;28;20156;-60
2024/02/15 11:09:50;;;;;;;45.80;13.25;;;;;;;17.15;100.00;98255.81;5027205;28;20030;-61
2024/02/15 11:12:15;;;;;;;34.00;7.20;;;;;;;15.94;100.00;98252.44;5028059;28;20100;-61
2024/02/15 11:14:44;;;;;;;44.00;8.38;;;;;;;16.33;100.00;98251.59;5030881;28;20055;-59
2024/02/15 11:17:13;;;;;;;53.22;8.25;;;;;;;16.60;100.00;98249.25;5029798;28;20067;-61
2024/02/15 11:19:56;;;;;;;76.55;9.68;;;;;;;17.50;100.00;98246.13;5026881;28;20036;-59